Home > Products > Valid Products > MTR

000
SAUS45 KABQ 011754
MTRTCS
METAR KTCS 011753Z AUTO 08004KT 10SM CLR 30/09 A3014 RMK AO2 SLP113
T03000089 10300 20183 58004 TSNO





000
SAUS45 KABQ 011754
MTRCQC
METAR KCQC 011753Z AUTO 10SM CLR 26/06 A3029 RMK AO2 SLP153
T02560061 10261 20122 50004





000
SAUS45 KABQ 011752
MTRABQ
METAR KABQ 011752Z 32007KT 10SM FEW080 FEW130 FEW250 28/08 A3021 RMK
AO2 SLP136 T02830083 10283 20183 58001





000
SAUS45 KABQ 011654
MTRCQC
METAR KCQC 011653Z AUTO 33009KT 10SM CLR 25/06 A3029 RMK AO2 SLP152
T02500061





000
SAUS45 KABQ 011654
MTRTCS
METAR KTCS 011653Z AUTO 10SM CLR 28/11 A3015 RMK AO2 SLP118
T02830106 TSNO





000
SAUS45 KABQ 011652
MTRABQ
METAR KABQ 011652Z 29003KT 10SM FEW080 SCT120 SCT250 27/08 A3022 RMK
AO2 SLP145 T02670083





000
SAUS45 KABQ 011554
MTRCQC
METAR KCQC 011553Z AUTO 30012KT 10SM CLR 23/08 A3028 RMK AO2 SLP155
T02280078





000
SAUS45 KABQ 011554
MTRTCS
METAR KTCS 011553Z AUTO VRB04KT 10SM CLR 28/09 A3015 RMK AO2 SLP120
T02780094 TSNO





000
SAUS45 KABQ 011552
MTRABQ
METAR KABQ 011552Z 00000KT 10SM FEW070 FEW110 FEW250 25/09 A3021 RMK
AO2 SLP142 T02500089





000
SAUS45 KABQ 011454
MTRCQC
METAR KCQC 011453Z AUTO 32010KT 10SM CLR 20/08 A3027 RMK AO2 SLP154
T02000083 51007





000
SAUS45 KABQ 011454
MTRTCS
METAR KTCS 011453Z AUTO 33004KT 10SM CLR 25/09 A3015 RMK AO2 SLP123
T02500094 53008 TSNO





000
SAUS45 KABQ 011452
MTRABQ
METAR KABQ 011452Z 18004KT 10SM FEW130 FEW250 23/09 A3021 RMK AO2
SLP143 T02280089 51010





000
SAUS45 KABQ 011452
MTRABQ
METAR KABQ 011452Z 18004KT 10SM FEW130 FEW250 23/09 A3021 RMK AO2
SLP143 T02280089 51010





000
SAUS45 KABQ 011354
MTRTCS
METAR KTCS 011353Z AUTO 29005KT 10SM CLR 22/11 A3014 RMK AO2 SLP122
T02220106 TSNO





000
SAUS45 KABQ 011354
MTRCQC
METAR KCQC 011353Z AUTO 30008KT 10SM CLR 18/08 A3027 RMK AO2 SLP149
T01780083





000
SAUS45 KABQ 011353
MTRABQ
METAR KABQ 011352Z 17003KT 10SM SCT130 SCT200 21/09 A3020 RMK AO2
SLP144 T02110089





000
SAUS45 KABQ 011254
MTRTCS
METAR KTCS 011253Z AUTO 31005KT 10SM CLR 19/10 A3013 RMK AO2 SLP121
T01890100 TSNO





000
SAUS45 KABQ 011254
MTRCQC
METAR KCQC 011253Z AUTO 30010KT 10SM CLR 14/08 A3026 RMK AO2 SLP150
T01390083





000
SAUS45 KABQ 011254
MTRTCS
METAR KTCS 011253Z AUTO 31005KT 10SM CLR 19/10 A3013 RMK AO2 SLP121
T01890100 TSNO





000
SAUS45 KABQ 011254
MTRCQC
METAR KCQC 011253Z AUTO 30010KT 10SM CLR 14/08 A3026 RMK AO2 SLP150
T01390083





000
SAUS45 KABQ 011253
MTRABQ
METAR KABQ 011252Z 12005KT 10SM SCT130 SCT200 19/09 A3019 RMK AO2
SLP140 T01890089





000
SAUS45 KABQ 011253
MTRABQ
METAR KABQ 011252Z 12005KT 10SM SCT130 SCT200 19/09 A3019 RMK AO2
SLP140 T01890089





000
SAUS45 KABQ 011217
MTRABQ
METAR KABQ 011152Z COR 13005KT 10SM FEW160 SCT200 19/09 A3017 RMK
AO2 SLP136 T01890089 10244 20183 53005





000
SAUS45 KABQ 011217
MTRABQ
METAR KABQ 011152Z COR 13005KT 10SM FEW160 SCT200 19/09 A3017 RMK
AO2 SLP136 T01890089 10244 20183 53005





000
SAUS45 KABQ 011154
MTRTCS
METAR KTCS 011153Z AUTO 33006KT 10SM CLR 19/10 A3012 RMK AO2 SLP117
T01940100 10233 20194 53004 TSNO





000
SAUS45 KABQ 011154
MTRCQC
METAR KCQC 011153Z AUTO 29011KT 10SM CLR 12/07 A3025 RMK AO2 SLP144
T01220072 10189 20122 53001





000
SAUS45 KABQ 011154
MTRCQC
METAR KCQC 011153Z AUTO 29011KT 10SM CLR 12/07 A3025 RMK AO2 SLP144
T01220072 10189 20122 53001





000
SAUS45 KABQ 011154
MTRTCS
METAR KTCS 011153Z AUTO 33006KT 10SM CLR 19/10 A3012 RMK AO2 SLP117
T01940100 10233 20194 53004 TSNO





000
SAUS45 KABQ 011152
MTRABQ
METAR KABQ 011152Z 13005KT 10SM CLR 19/09 A3017 RMK AO2 SLP136
T01890089 10244 20183 53005





000
SAUS45 KABQ 011152
MTRABQ
METAR KABQ 011152Z 13005KT 10SM CLR 19/09 A3017 RMK AO2 SLP136
T01890089 10244 20183 53005





000
SAUS45 KABQ 011054
MTRCQC
METAR KCQC 011053Z AUTO 29011KT 10SM CLR 12/07 A3024 RMK AO2 SLP138
T01220067





000
SAUS45 KABQ 011054
MTRTCS
METAR KTCS 011053Z AUTO 32008KT 10SM CLR 21/10 A3011 RMK AO2 SLP105
T02110100 TSNO





000
SAUS45 KABQ 011054
MTRCQC
METAR KCQC 011053Z AUTO 29011KT 10SM CLR 12/07 A3024 RMK AO2 SLP138
T01220067





000
SAUS45 KABQ 011054
MTRTCS
METAR KTCS 011053Z AUTO 32008KT 10SM CLR 21/10 A3011 RMK AO2 SLP105
T02110100 TSNO





000
SAUS45 KABQ 011052
MTRABQ
METAR KABQ 011052Z 16004KT 10SM FEW160 SCT200 20/09 A3016 RMK AO2
SLP124 T02000089





000
SAUS45 KABQ 011052
MTRABQ
METAR KABQ 011052Z 16004KT 10SM FEW160 SCT200 20/09 A3016 RMK AO2
SLP124 T02000089





000
SAUS45 KABQ 010958 COR
MTRCQC
METAR KCQC 010953Z AUTO 28009KT 10SM CLR 14/07 A3024 RMK AO2 SLP135
T01390067





000
SAUS45 KABQ 010956 COR
MTRCQC
METAR KCQC 010953Z AUTO 28009KT 10SM CLR 14/07 A3024 RMK AO2 SLP135
T01390067





000
SAUS45 KABQ 010955 COR
MTRCQC
METAR KCQC 010953Z AUTO 28009KT 10SM CLR 14/07 A3024 RMK AO2 SLP135
T01390067





000
SAUS45 KABQ 010954
MTRCQC
METAR KCQC 010953Z AUTO 28009KT 10SM CLR 14/07 A3024 RMK AO2 SLP135
T01390067





000
SAUS45 KABQ 010954
MTRTCS
METAR KTCS 010953Z AUTO 31013KT 10SM CLR 22/11 A3011 RMK AO2 SLP106
T02170106 TSNO





000
SAUS45 KABQ 010952
MTRABQ
METAR KABQ 010952Z 14004KT 10SM OVC160 21/09 A3015 RMK AO2 SLP114
T02110089





000
SAUS45 KABQ 010854
MTRTCS
METAR KTCS 010853Z AUTO 32013G21KT 10SM CLR 23/10 A3011 RMK AO2
SLP104 T02280100 58006 TSNO





000
SAUS45 KABQ 010854
MTRCQC
METAR KCQC 010853Z AUTO 27006KT 10SM CLR 14/07 A3024 RMK AO2 SLP135
T01440067 58003





000
SAUS45 KABQ 010854
MTRTCS
METAR KTCS 010853Z AUTO 32013G21KT 10SM CLR 23/10 A3011 RMK AO2
SLP104 T02280100 58006 TSNO





000
SAUS45 KABQ 010854
MTRCQC
METAR KCQC 010853Z AUTO 27006KT 10SM CLR 14/07 A3024 RMK AO2 SLP135
T01440067 58003





000
SAUS45 KABQ 010852
MTRABQ
METAR KABQ 010852Z 18003KT 10SM OVC160 22/08 A3016 RMK AO2 SLP115
T02220083 58007





000
SAUS45 KABQ 010754
MTRCQC
METAR KCQC 010753Z AUTO 30006KT 10SM CLR 15/07 A3026 RMK AO2 SLP139
T01500072





000
SAUS45 KABQ 010754
MTRCQC
METAR KCQC 010753Z AUTO 30006KT 10SM CLR 15/07 A3026 RMK AO2 SLP139
T01500072





000
SAUS45 KABQ 010754
MTRTCS
METAR KTCS 010753Z AUTO 33007KT 10SM CLR 22/11 A3013 RMK AO2 SLP114
T02220106 TSNO





000
SAUS45 KABQ 010753
MTRABQ
METAR KABQ 010752Z 19005KT 10SM FEW070 BKN160 22/09 A3017 RMK AO2
SLP120 T02220089





000
SAUS45 KABQ 010753
MTRABQ
METAR KABQ 010752Z 19005KT 10SM FEW070 BKN160 22/09 A3017 RMK AO2
SLP120 T02220089





000
SAUS45 KABQ 010654
MTRCQC
METAR KCQC 010653Z AUTO 21003KT 10SM FEW100 18/07 A3028 RMK AO2
SLP144 T01780072 402890128





000
SAUS45 KABQ 010654
MTRTCS
METAR KTCS 010653Z AUTO 32010KT 10SM CLR 23/11 A3013 RMK AO2 SLP110
T02330106 403110194 TSNO





000
SAUS45 KABQ 010654
MTRCQC
METAR KCQC 010653Z AUTO 21003KT 10SM FEW100 18/07 A3028 RMK AO2
SLP144 T01780072 402890128





000
SAUS45 KABQ 010654
MTRTCS
METAR KTCS 010653Z AUTO 32010KT 10SM CLR 23/11 A3013 RMK AO2 SLP110
T02330106 403110194 TSNO





000
SAUS45 KABQ 010653
MTRABQ
METAR KABQ 010652Z 00000KT 10SM FEW070 BKN160 23/09 A3018 RMK AO2
SLP125 T02280089 403280183





000
SAUS45 KABQ 010653
MTRABQ
METAR KABQ 010652Z 00000KT 10SM FEW070 BKN160 23/09 A3018 RMK AO2
SLP125 T02280089 403280183





000
SAUS45 KABQ 010558 COR
MTRCQC
METAR KCQC 010553Z AUTO 30009KT 10SM CLR 16/07 A3025 RMK AO2 SLP141
T01560072 10267 20156 51007





000
SAUS45 KABQ 010558 COR
MTRCQC
METAR KCQC 010553Z AUTO 30009KT 10SM CLR 16/07 A3025 RMK AO2 SLP141
T01560072 10267 20156 51007





000
SAUS45 KABQ 010556 COR
MTRCQC
METAR KCQC 010553Z AUTO 30009KT 10SM CLR 16/07 A3025 RMK AO2 SLP141
T01560072 10267 20156 51007





000
SAUS45 KABQ 010556 COR
MTRCQC
METAR KCQC 010553Z AUTO 30009KT 10SM CLR 16/07 A3025 RMK AO2 SLP141
T01560072 10267 20156 51007





000
SAUS45 KABQ 010555 COR
MTRCQC
METAR KCQC 010553Z AUTO 30009KT 10SM CLR 16/07 A3025 RMK AO2 SLP141
T01560072 10267 20156 51007





000
SAUS45 KABQ 010555 COR
MTRCQC
METAR KCQC 010553Z AUTO 30009KT 10SM CLR 16/07 A3025 RMK AO2 SLP141
T01560072 10267 20156 51007





000
SAUS45 KABQ 010554
MTRCQC
METAR KCQC 010553Z AUTO 30009KT 10SM CLR 16/07 A3025 RMK AO2 SLP141
T01560072 10267 20156 51007





000
SAUS45 KABQ 010554
MTRTCS
METAR KTCS 010553Z AUTO 33009KT 10SM FEW110 23/11 A3013 RMK AO2
SLP108 T02330106 10289 20228 51016 TSNO





000
SAUS45 KABQ 010554
MTRTCS
METAR KTCS 010553Z AUTO 33009KT 10SM FEW110 23/11 A3013 RMK AO2
SLP108 T02330106 10289 20228 51016 TSNO





000
SAUS45 KABQ 010554
MTRCQC
METAR KCQC 010553Z AUTO 30009KT 10SM CLR 16/07 A3025 RMK AO2 SLP141
T01560072 10267 20156 51007





000
SAUS45 KABQ 010552
MTRABQ
METAR KABQ 010552Z 27005KT 10SM FEW070 BKN100 BKN200 24/09 A3018 RMK
AO2 SLP127 60000 T02390089 10278 20233 53013





000
SAUS45 KABQ 010552
MTRABQ
METAR KABQ 010552Z 27005KT 10SM FEW070 BKN100 BKN200 24/09 A3018 RMK
AO2 SLP127 60000 T02390089 10278 20233 53013





000
SAUS45 KABQ 010454
MTRTCS
METAR KTCS 010453Z AUTO 30007KT 10SM CLR 23/10 A3012 RMK AO2 SLP107
T02330100 TSNO





000
SAUS45 KABQ 010454
MTRCQC
METAR KCQC 010453Z AUTO 29010KT 10SM FEW110 17/07 A3025 RMK AO2
SLP136 T01720072





000
SAUS45 KABQ 010452
MTRABQ
METAR KABQ 010452Z 25004KT 10SM SCT070 BKN100 BKN200 23/09 A3017 RMK
AO2 SLP125 LTG DSNT N T02330089





000
SAUS45 KABQ 010354
MTRTCS
METAR KTCS 010353Z AUTO 35006KT 10SM CLR 24/10 A3010 RMK AO2 SLP103
T02390100 TSNO





000
SAUS45 KABQ 010354
MTRTCS
METAR KTCS 010353Z AUTO 35006KT 10SM CLR 24/10 A3010 RMK AO2 SLP103
T02390100 TSNO





000
SAUS45 KABQ 010354
MTRCQC
METAR KCQC 010353Z AUTO 27011KT 10SM CLR 17/07 A3025 RMK AO2 SLP138
T01720067





000
SAUS45 KABQ 010352
MTRABQ
METAR KABQ 010352Z 15004KT 10SM FEW100 BKN130 BKN200 24/08 A3014 RMK
AO2 SLP118 T02440083





000
SAUS45 KABQ 010352
MTRABQ
METAR KABQ 010352Z 15004KT 10SM FEW100 BKN130 BKN200 24/08 A3014 RMK
AO2 SLP118 T02440083





000
SAUS45 KABQ 010254
MTRCQC
METAR KCQC 010253Z AUTO 29009KT 10SM CLR 19/06 A3023 RMK AO2 SLP138
T01890061 53012





000
SAUS45 KABQ 010254
MTRTCS
METAR KTCS 010253Z AUTO 31011KT 10SM CLR 25/10 A3007 RMK AO2 SLP094
T02500100 53003 TSNO





000
SAUS45 KABQ 010252
MTRABQ
METAR KABQ 010252Z 31006KT 10SM FEW100 BKN160 BKN200 26/07 A3014 RMK
AO2 SLP115 60000 T02610072 53012





000
SAUS45 KABQ 010154
MTRTCS
METAR KTCS 010153Z AUTO 31012KT 10SM CLR 26/10 A3006 RMK AO2 SLP094
T02610100 TSNO





000
SAUS45 KABQ 010154
MTRCQC
METAR KCQC 010153Z AUTO 32007KT 10SM CLR 22/06 A3021 RMK AO2 SLP128
T02170056





000
SAUS45 KABQ 010154
MTRCQC
METAR KCQC 010153Z AUTO 32007KT 10SM CLR 22/06 A3021 RMK AO2 SLP128
T02170056





000
SAUS45 KABQ 010154
MTRTCS
METAR KTCS 010153Z AUTO 31012KT 10SM CLR 26/10 A3006 RMK AO2 SLP094
T02610100 TSNO





000
SAUS45 KABQ 010152
MTRABQ
METAR KABQ 010152Z 01007KT 10SM FEW100 BKN140 BKN250 27/09 A3012 RMK
AO2 SLP113 VIRGA NW T02670089





000
SAUS45 KABQ 010152
MTRABQ
METAR KABQ 010152Z 01007KT 10SM FEW100 BKN140 BKN250 27/09 A3012 RMK
AO2 SLP113 VIRGA NW T02670089





000
SAUS45 KABQ 010054
MTRTCS
METAR KTCS 010053Z AUTO 31010KT 10SM CLR 27/10 A3006 RMK AO2 SLP098
T02720100 TSNO





000
SAUS45 KABQ 010054
MTRCQC
METAR KCQC 010053Z AUTO 29008KT 10SM CLR 23/05 A3020 RMK AO2 SLP133
T02330050





000
SAUS45 KABQ 010052
MTRABQ
METAR KABQ 010052Z 33014G18KT 10SM SCT090 BKN140 BKN250 28/08 A3011
RMK AO2 RAB14E28 SLP110 SHRA DSNT NW-N P0000 T02780078 $





000
SAUS45 KABQ 010017
MTRABQ
SPECI KABQ 010016Z 26011KT 10SM -RA SCT090 BKN140 BKN250 27/07 A3009
RMK AO2 LTG DSNT E RAB14 P0000 T02670072 $





000
SAUS45 KABQ 312355
MTRTCS
METAR KTCS 312353Z AUTO 32014G20KT 10SM CLR 28/11 A3006 RMK AO2
SLP094 T02830111 10311 20272 55015 TSNO





000
SAUS45 KABQ 312354
MTRCQC
METAR KCQC 312353Z AUTO 31012KT 10SM CLR 27/06 A3019 RMK AO2 SLP118
T02670061 10289 20256 55008





000
SAUS45 KABQ 312352
MTRABQ
METAR KABQ 312352Z 23019G26KT 10SM VCTS SCT090CB BKN140 BKN250 27/06
A3009 RMK AO2 PK WND 18034/2301 LTG DSNT N AND E TSE11 SLP105 TS W
MOV NE VCSH SW SHRA DSNT W-N T02720061 10328 20267 55004 $





000
SAUS45 KABQ 312311
MTRABQ
SPECI KABQ 312311Z 22015G25KT 180V240 10SM VCTS FEW080 BKN100CB
BKN150 BKN250 31/05 A3008 RMK AO2 PK WND 18034/2301 LTG DSNT E AND
SW AND W TSE11 TS W MOV NE VCSH W T03060050 $





000
SAUS45 KABQ 312311
MTRABQ
SPECI KABQ 312311Z 22015G25KT 180V240 10SM VCTS FEW080 BKN100CB
BKN150 BKN250 31/05 A3008 RMK AO2 PK WND 18034/2301 LTG DSNT E AND
SW AND W TSE11 TS W MOV NE VCSH W T03060050 $





000
SAUS45 KABQ 312255
MTRCQC
METAR KCQC 312253Z AUTO 27011G20KT 10SM SCT095 SCT120 28/05 A3019
RMK AO2 SLP117 T02780050





000
SAUS45 KABQ 312254
MTRTCS
METAR KTCS 312253Z AUTO VRB06KT 10SM CLR 31/06 A3006 RMK AO2 SLP088
T03110061 TSNO





000
SAUS45 KABQ 312253
MTRABQ
METAR KABQ 312252Z 21015G22KT 10SM TS FEW080 SCT100CB BKN150 BKN250
31/07 A3008 RMK AO2 LTG DSNT SW AND W TSB13 SLP095 TS OHD-SW MOV NE
VCSH SW T03060067 $





000
SAUS45 KABQ 312214
MTRABQ
SPECI KABQ 312213Z 23006KT 10SM TS SCT100CB BKN130 BKN250 31/06
A3008 RMK AO2 TSB13 TS SW MOV NE VCSH SW T03060056 $





000
SAUS45 KABQ 312154
MTRTCS
METAR KTCS 312153Z AUTO 33013G21KT 10SM CLR 29/09 A3008 RMK AO2
SLP098 T02940089 TSNO





000
SAUS45 KABQ 312154
MTRTCS
METAR KTCS 312153Z AUTO 33013G21KT 10SM CLR 29/09 A3008 RMK AO2
SLP098 T02940089 TSNO





000
SAUS45 KABQ 312154
MTRCQC
METAR KCQC 312153Z AUTO 28008KT 10SM FEW090 SCT110 27/06 A3020 RMK
AO2 SLP123 T02670061





000
SAUS45 KABQ 312153
MTRABQ
METAR KABQ 312152Z 27007KT 10SM SCT100TCU BKN130 BKN250 32/07 A3009
RMK AO2 SLP096 VIRGA N TCU N AND NE AND SW T03170067





000
SAUS45 KABQ 312054
MTRTCS
METAR KTCS 312053Z AUTO 31013G17KT 10SM CLR 29/07 A3011 RMK AO2
SLP106 T02890072 56008 TSNO





000
SAUS45 KABQ 312054
MTRCQC
METAR KCQC 312053Z AUTO 28010G17KT 10SM BKN080 27/07 A3022 RMK AO2
SLP125 T02720072 56016





000
SAUS45 KABQ 312054
MTRTCS
METAR KTCS 312053Z AUTO 31013G17KT 10SM CLR 29/07 A3011 RMK AO2
SLP106 T02890072 56008 TSNO





000
SAUS45 KABQ 312054
MTRCQC
METAR KCQC 312053Z AUTO 28010G17KT 10SM BKN080 27/07 A3022 RMK AO2
SLP125 T02720072 56016





000
SAUS45 KABQ 312052
MTRABQ
METAR KABQ 312052Z VRB03KT 10SM SCT100 SCT270 32/07 A3011 RMK AO2
SLP098 T03170067 58024





000
SAUS45 KABQ 312052
MTRABQ
METAR KABQ 312052Z VRB03KT 10SM SCT100 SCT270 32/07 A3011 RMK AO2
SLP098 T03170067 58024





000
SAUS45 KABQ 311958 COR
MTRCQC
METAR KCQC 311953Z AUTO 29016G24KT 10SM CLR 28/07 A3023 RMK AO2
SLP130 T02780072





000
SAUS45 KABQ 311956 COR
MTRCQC
METAR KCQC 311953Z AUTO 29016G24KT 10SM CLR 28/07 A3023 RMK AO2
SLP130 T02780072





000
SAUS45 KABQ 311956 COR
MTRCQC
METAR KCQC 311953Z AUTO 29016G24KT 10SM CLR 28/07 A3023 RMK AO2
SLP130 T02780072





000
SAUS45 KABQ 311955 COR
MTRCQC
METAR KCQC 311953Z AUTO 29016G24KT 10SM CLR 28/07 A3023 RMK AO2
SLP130 T02780072





000
SAUS45 KABQ 311955 COR
MTRCQC
METAR KCQC 311953Z AUTO 29016G24KT 10SM CLR 28/07 A3023 RMK AO2
SLP130 T02780072





000
SAUS45 KABQ 311954
MTRTCS
METAR KTCS 311953Z AUTO 25015G31KT 10SM CLR 28/08 A3012 RMK AO2 PK
WND 24031/1944 SLP112 T02780083 TSNO





000
SAUS45 KABQ 311954
MTRCQC
METAR KCQC 311953Z AUTO 29016G24KT 10SM CLR 28/07 A3023 RMK AO2
SLP130 T02780072





000
SAUS45 KABQ 311954
MTRTCS
METAR KTCS 311953Z AUTO 25015G31KT 10SM CLR 28/08 A3012 RMK AO2 PK
WND 24031/1944 SLP112 T02780083 TSNO





000
SAUS45 KABQ 311954
MTRCQC
METAR KCQC 311953Z AUTO 29016G24KT 10SM CLR 28/07 A3023 RMK AO2
SLP130 T02780072





000
SAUS45 KABQ 311953
MTRABQ
METAR KABQ 311952Z VRB06KT 10SM SCT100 SCT250 31/08 A3014 RMK AO2
SLP107 CB DSNT N AND SW TCU DSNT NW T03110078





000
SAUS45 KABQ 311854
MTRCQC
METAR KCQC 311853Z AUTO 29012G20KT 10SM CLR 27/07 A3026 RMK AO2
SLP136 T02720072





000
SAUS45 KABQ 311854
MTRCQC
METAR KCQC 311853Z AUTO 29012G20KT 10SM CLR 27/07 A3026 RMK AO2
SLP136 T02720072





000
SAUS45 KABQ 311854
MTRTCS
METAR KTCS 311853Z AUTO 00000KT 10SM CLR 31/11 A3013 RMK AO2 SLP108
T03060106 TSNO





000
SAUS45 KABQ 311854
MTRTCS
METAR KTCS 311853Z AUTO 00000KT 10SM CLR 31/11 A3013 RMK AO2 SLP108
T03060106 TSNO





000
SAUS45 KABQ 311853
MTRABQ
METAR KABQ 311852Z 00000KT 10SM FEW090 29/08 A3016 RMK AO2 SLP118 CB
DSNT SW TCU DSNT N AND W T02940083





000
SAUS45 KABQ 311755
MTRCQC
METAR KCQC 311753Z AUTO 29009KT 10SM CLR 26/08 A3028 RMK AO2 SLP146
T02560078 10261 20128 50002





000
SAUS45 KABQ 311755
MTRCQC
METAR KCQC 311753Z AUTO 29009KT 10SM CLR 26/08 A3028 RMK AO2 SLP146
T02560078 10261 20128 50002





000
SAUS45 KABQ 311754
MTRTCS
METAR KTCS 311753Z AUTO 10SM CLR 31/11 A3014 RMK AO2 SLP110
T03110106 10311 20194 58000 TSNO





000
SAUS45 KABQ 311754
MTRABQ
METAR KABQ 311752Z COR 33006KT 10SM FEW090 28/09 A3019 RMK AO2
SLP127 CB DSNT SW AND W T02830089 10289 20189 58005





000
SAUS45 KABQ 311754
MTRABQ
METAR KABQ 311752Z COR 33006KT 10SM FEW090 28/09 A3019 RMK AO2
SLP127 CB DSNT SW AND W T02830089 10289 20189 58005





000
SAUS45 KABQ 311754
MTRTCS
METAR KTCS 311753Z AUTO 10SM CLR 31/11 A3014 RMK AO2 SLP110
T03110106 10311 20194 58000 TSNO





000
SAUS45 KABQ 311752
MTRABQ
METAR KABQ 311752Z 10SM FEW090 28/09 A3019 RMK AO2 SLP127 CB DSNT SW
AND W T02830089 10289 20189 58005





000
SAUS45 KABQ 311752
MTRABQ
METAR KABQ 311752Z 10SM FEW090 28/09 A3019 RMK AO2 SLP127 CB DSNT SW
AND W T02830089 10289 20189 58005





000
SAUS45 KABQ 311654
MTRCQC
METAR KCQC 311653Z AUTO 30012G20KT 10SM CLR 24/09 A3028 RMK AO2
SLP149 T02440089





000
SAUS45 KABQ 311654
MTRTCS
METAR KTCS 311653Z AUTO 05008KT 10SM CLR 29/11 A3015 RMK AO2 SLP116
T02940106 TSNO





000
SAUS45 KABQ 311653
MTRABQ
METAR KABQ 311652Z 03004KT 10SM FEW080 FEW140 FEW270 27/09 A3021 RMK
AO2 SLP136 T02720094





000
SAUS45 KABQ 311558 COR
MTRCQC
METAR KCQC 311553Z AUTO 30015G21KT 10SM CLR 23/08 A3028 RMK AO2
SLP146 T02330083





000
SAUS45 KABQ 311556 COR
MTRCQC
METAR KCQC 311553Z AUTO 30015G21KT 10SM CLR 23/08 A3028 RMK AO2
SLP146 T02330083





000
SAUS45 KABQ 311555 COR
MTRCQC
METAR KCQC 311553Z AUTO 30015G21KT 10SM CLR 23/08 A3028 RMK AO2
SLP146 T02330083





000
SAUS45 KABQ 311555 COR
MTRCQC
METAR KCQC 311553Z AUTO 30015G21KT 10SM CLR 23/08 A3028 RMK AO2
SLP146 T02330083





000
SAUS45 KABQ 311554
MTRTCS
METAR KTCS 311553Z AUTO 02005KT 10SM CLR 28/11 A3015 RMK AO2 SLP115
T02780111 TSNO





000
SAUS45 KABQ 311554
MTRCQC
METAR KCQC 311553Z AUTO 30015G21KT 10SM CLR 23/08 A3028 RMK AO2
SLP146 T02330083





000
SAUS45 KABQ 311554
MTRCQC
METAR KCQC 311553Z AUTO 30015G21KT 10SM CLR 23/08 A3028 RMK AO2
SLP146 T02330083





000
SAUS45 KABQ 311552
MTRABQ
METAR KABQ 311552Z 34006KT 10SM FEW140 FEW270 26/09 A3021 RMK AO2
SLP136 T02560094





000
SAUS45 KABQ 311458 COR
MTRCQC
METAR KCQC 311453Z AUTO 29013KT 10SM CLR 20/09 A3027 RMK AO2 SLP151
T02000089 51011





000
SAUS45 KABQ 311456 COR
MTRCQC
METAR KCQC 311453Z AUTO 29013KT 10SM CLR 20/09 A3027 RMK AO2 SLP151
T02000089 51011





000
SAUS45 KABQ 311456 COR
MTRCQC
METAR KCQC 311453Z AUTO 29013KT 10SM CLR 20/09 A3027 RMK AO2 SLP151
T02000089 51011





000
SAUS45 KABQ 311455
MTRCQC
METAR KCQC 311453Z AUTO 29013KT 10SM CLR 20/09 A3027 RMK AO2 SLP151
T02000089 51011





000
SAUS45 KABQ 311455 COR
MTRCQC
METAR KCQC 311453Z AUTO 29013KT 10SM CLR 20/09 A3027 RMK AO2 SLP151
T02000089 51011





000
SAUS45 KABQ 311455 COR
MTRCQC
METAR KCQC 311453Z AUTO 29013KT 10SM CLR 20/09 A3027 RMK AO2 SLP151
T02000089 51011





000
SAUS45 KABQ 311454
MTRTCS
METAR KTCS 311453Z AUTO 29006KT 10SM CLR 26/11 A3014 RMK AO2 SLP116
T02560106 51009 TSNO





000
SAUS45 KABQ 311454
MTRTCS
METAR KTCS 311453Z AUTO 29006KT 10SM CLR 26/11 A3014 RMK AO2 SLP116
T02560106 51009 TSNO





000
SAUS45 KABQ 311453
MTRABQ
METAR KABQ 311452Z 00000KT 10SM FEW140 FEW230 FEW300 23/09 A3021 RMK
AO2 SLP137 T02330094 50015





000
SAUS45 KABQ 311453
MTRABQ
METAR KABQ 311452Z 00000KT 10SM FEW140 FEW230 FEW300 23/09 A3021 RMK
AO2 SLP137 T02330094 50015





000
SAUS45 KABQ 311354
MTRCQC
METAR KCQC 311353Z AUTO 28011KT 10SM CLR 18/08 A3026 RMK AO2 SLP151
T01780083





000
SAUS45 KABQ 311354
MTRTCS
METAR KTCS 311353Z AUTO 30005KT 10SM SCT120 22/11 A3014 RMK AO2
SLP116 T02220106 TSNO





000
SAUS45 KABQ 311353
MTRABQ
METAR KABQ 311352Z 14004KT 10SM FEW150 SCT250 21/09 A3021 RMK AO2
SLP140 T02060094





000
SAUS45 KABQ 311254
MTRTCS
METAR KTCS 311253Z AUTO 30004KT 10SM CLR 19/11 A3012 RMK AO2 SLP111
T01940106 TSNO





000
SAUS45 KABQ 311254
MTRTCS
METAR KTCS 311253Z AUTO 30004KT 10SM CLR 19/11 A3012 RMK AO2 SLP111
T01940106 TSNO





000
SAUS45 KABQ 311254
MTRCQC
METAR KCQC 311253Z AUTO 29008KT 10SM CLR 13/08 A3025 RMK AO2 SLP148
T01330078





000
SAUS45 KABQ 311252
MTRABQ
METAR KABQ 311252Z 29003KT 10SM FEW150 SCT250 20/10 A3018 RMK AO2
SLP127 T02000100





000
SAUS45 KABQ 311252
MTRABQ
METAR KABQ 311252Z 29003KT 10SM FEW150 SCT250 20/10 A3018 RMK AO2
SLP127 T02000100





000
SAUS45 KABQ 311154
MTRCQC
METAR KCQC 311153Z AUTO 27007KT 10SM CLR 14/08 A3023 RMK AO2 SLP145
T01390078 10178 20133 51004





000
SAUS45 KABQ 311154
MTRTCS
METAR KTCS 311153Z AUTO 29006KT 10SM CLR 20/11 A3011 RMK AO2 SLP105
T02000106 10239 20200 53003 TSNO





000
SAUS45 KABQ 311154
MTRCQC
METAR KCQC 311153Z AUTO 27007KT 10SM CLR 14/08 A3023 RMK AO2 SLP145
T01390078 10178 20133 51004





000
SAUS45 KABQ 311154
MTRTCS
METAR KTCS 311153Z AUTO 29006KT 10SM CLR 20/11 A3011 RMK AO2 SLP105
T02000106 10239 20200 53003 TSNO





000
SAUS45 KABQ 311153
MTRABQ
METAR KABQ 311152Z 00000KT 10SM BKN250 20/09 A3016 RMK AO2 SLP118
T02000089 10256 20183 53008





000
SAUS45 KABQ 311153
MTRABQ
METAR KABQ 311152Z 00000KT 10SM BKN250 20/09 A3016 RMK AO2 SLP118
T02000089 10256 20183 53008





000
SAUS45 KABQ 311054
MTRTCS
METAR KTCS 311053Z AUTO 26008KT 10SM CLR 21/10 A3010 RMK AO2 SLP099
T02060100 TSNO





000
SAUS45 KABQ 311054
MTRTCS
METAR KTCS 311053Z AUTO 26008KT 10SM CLR 21/10 A3010 RMK AO2 SLP099
T02060100 TSNO





000
SAUS45 KABQ 311054
MTRCQC
METAR KCQC 311053Z AUTO 25009KT 10SM CLR 13/08 A3023 RMK AO2 SLP130
T01330078





000
SAUS45 KABQ 311054
MTRCQC
METAR KCQC 311053Z AUTO 25009KT 10SM CLR 13/08 A3023 RMK AO2 SLP130
T01330078





000
SAUS45 KABQ 311052
MTRABQ
METAR KABQ 311052Z 17003KT 10SM FEW250 21/09 A3015 RMK AO2 SLP112
T02060094





000
SAUS45 KABQ 310954
MTRCQC
METAR KCQC 310953Z AUTO 26010KT 10SM CLR 14/07 A3022 RMK AO2 SLP128
T01390072





000
SAUS45 KABQ 310954
MTRTCS
METAR KTCS 310953Z AUTO 26006KT 10SM CLR 21/09 A3010 RMK AO2 SLP099
T02060094 TSNO





000
SAUS45 KABQ 310952
MTRABQ
METAR KABQ 310952Z 11006KT 10SM CLR 20/09 A3014 RMK AO2 SLP112
T02000089





000
SAUS45 KABQ 310854
MTRTCS
METAR KTCS 310853Z AUTO 26004KT 10SM CLR 23/10 A3010 RMK AO2 SLP096
T02280100 51004 TSNO





000
SAUS45 KABQ 310854
MTRCQC
METAR KCQC 310853Z AUTO 28011KT 10SM CLR 16/07 A3022 RMK AO2 SLP120
T01610072 58006





000
SAUS45 KABQ 310852
MTRABQ
METAR KABQ 310852Z 28005KT 10SM CLR 22/09 A3013 RMK AO2 SLP108
T02220094 58004





000
SAUS45 KABQ 310755
MTRCQC
METAR KCQC 310753Z AUTO 25009KT 10SM CLR 15/07 A3022 RMK AO2 SLP128
T01500072





000
SAUS45 KABQ 310755
MTRTCS
METAR KTCS 310753Z AUTO 29005KT 10SM CLR 22/09 A3010 RMK AO2 SLP099
T02220094 TSNO





000
SAUS45 KABQ 310755
MTRCQC
METAR KCQC 310753Z AUTO 25009KT 10SM CLR 15/07 A3022 RMK AO2 SLP128
T01500072





000
SAUS45 KABQ 310755
MTRTCS
METAR KTCS 310753Z AUTO 29005KT 10SM CLR 22/09 A3010 RMK AO2 SLP099
T02220094 TSNO





000
SAUS45 KABQ 310753
MTRABQ
METAR KABQ 310752Z 31006KT 10SM FEW110 24/09 A3014 RMK AO2 SLP108
T02390089





000
SAUS45 KABQ 310654
MTRTCS
METAR KTCS 310653Z AUTO 29004KT 10SM CLR 23/09 A3009 RMK AO2 SLP095
T02280094 403330183 TSNO





000
SAUS45 KABQ 310654
MTRTCS
METAR KTCS 310653Z AUTO 29004KT 10SM CLR 23/09 A3009 RMK AO2 SLP095
T02280094 403330183 TSNO





000
SAUS45 KABQ 310654
MTRCQC
METAR KCQC 310653Z AUTO 25011KT 10SM CLR 17/08 A3024 RMK AO2 SLP131
T01720078 402940122





000
SAUS45 KABQ 310653
MTRABQ
METAR KABQ 310652Z 33005KT 10SM FEW110 24/09 A3014 RMK AO2 SLP112
T02440089 403330178





000
SAUS45 KABQ 310653
MTRABQ
METAR KABQ 310652Z 33005KT 10SM FEW110 24/09 A3014 RMK AO2 SLP112
T02440089 403330178





000
SAUS45 KABQ 310554
MTRCQC
METAR KCQC 310553Z AUTO 21011KT 10SM CLR 17/08 A3024 RMK AO2 SLP134
T01720078 10244 20172 51003





000
SAUS45 KABQ 310554
MTRTCS
METAR KTCS 310553Z AUTO 25004KT 10SM CLR 24/09 A3009 RMK AO2 SLP097
T02390094 10322 20239 50004 TSNO





000
SAUS45 KABQ 310554
MTRCQC
METAR KCQC 310553Z AUTO 21011KT 10SM CLR 17/08 A3024 RMK AO2 SLP134
T01720078 10244 20172 51003





000
SAUS45 KABQ 310554
MTRTCS
METAR KTCS 310553Z AUTO 25004KT 10SM CLR 24/09 A3009 RMK AO2 SLP097
T02390094 10322 20239 50004 TSNO





000
SAUS45 KABQ 310552
MTRABQ
METAR KABQ 310552Z 36007KT 10SM SCT110 SCT200 26/09 A3014 RMK AO2
SLP113 T02560089 10328 20250 51016





000
SAUS45 KABQ 310552
MTRABQ
METAR KABQ 310552Z 36007KT 10SM SCT110 SCT200 26/09 A3014 RMK AO2
SLP113 T02560089 10328 20250 51016





000
SAUS45 KABQ 310454
MTRTCS
METAR KTCS 310453Z AUTO 20005KT 10SM CLR 24/09 A3010 RMK AO2 SLP100
T02440094 TSNO





000
SAUS45 KABQ 310454
MTRCQC
METAR KCQC 310453Z AUTO 19010KT 10SM CLR 17/08 A3023 RMK AO2 SLP134
T01720083





000
SAUS45 KABQ 310453
MTRABQ
METAR KABQ 310452Z 09006KT 10SM SCT120 SCT250 26/07 A3012 RMK AO2
SLP109 T02560072





000
SAUS45 KABQ 310453
MTRABQ
METAR KABQ 310452Z 09006KT 10SM SCT120 SCT250 26/07 A3012 RMK AO2
SLP109 T02560072





000
SAUS45 KABQ 310354
MTRCQC
METAR KCQC 310353Z AUTO 19012KT 10SM CLR 19/09 A3024 RMK AO2 SLP137
T01890089





000
SAUS45 KABQ 310354
MTRTCS
METAR KTCS 310353Z AUTO 28006KT 10SM CLR 26/10 A3009 RMK AO2 SLP097
T02560100 TSNO





000
SAUS45 KABQ 310352
MTRABQ
METAR KABQ 310352Z VRB06KT 10SM SCT120 SCT250 27/07 A3012 RMK AO2
SLP108 T02720072





000
SAUS45 KABQ 310254
MTRCQC
METAR KCQC 310253Z AUTO 18010KT 10SM CLR 19/08 A3023 RMK AO2 SLP133
T01940083 55000





000
SAUS45 KABQ 310254
MTRCQC
METAR KCQC 310253Z AUTO 18010KT 10SM CLR 19/08 A3023 RMK AO2 SLP133
T01940083 55000





000
SAUS45 KABQ 310254
MTRTCS
METAR KTCS 310253Z AUTO 29006KT 10SM CLR 27/09 A3007 RMK AO2 SLP095
T02670094 53006 TSNO





000
SAUS45 KABQ 310252
MTRABQ
METAR KABQ 310252Z 20006KT 10SM FEW080 FEW140 SCT220 29/06 A3009 RMK
AO2 SLP097 T02890061 53004





000
SAUS45 KABQ 310252
MTRABQ
METAR KABQ 310252Z 20006KT 10SM FEW080 FEW140 SCT220 29/06 A3009 RMK
AO2 SLP097 T02890061 53004





000
SAUS45 KABQ 310154
MTRCQC
METAR KCQC 310153Z AUTO 19009KT 10SM CLR 21/07 A3021 RMK AO2 SLP132
T02110072





000
SAUS45 KABQ 310154
MTRTCS
METAR KTCS 310153Z AUTO 30005KT 10SM CLR 29/09 A3005 RMK AO2 SLP087
T02890089 TSNO





000
SAUS45 KABQ 310154
MTRCQC
METAR KCQC 310153Z AUTO 19009KT 10SM CLR 21/07 A3021 RMK AO2 SLP132
T02110072





000
SAUS45 KABQ 310154
MTRTCS
METAR KTCS 310153Z AUTO 30005KT 10SM CLR 29/09 A3005 RMK AO2 SLP087
T02890089 TSNO





000
SAUS45 KABQ 310153
MTRABQ
METAR KABQ 310152Z 20007KT 10SM FEW080 FEW160 SCT220 30/06 A3007 RMK
AO2 SLP094 T03000056





000
SAUS45 KABQ 310054
MTRCQC
METAR KCQC 310053Z AUTO 14008KT 10SM SCT090 24/07 A3021 RMK AO2
SLP132 T02440072





000
SAUS45 KABQ 310054
MTRTCS
METAR KTCS 310053Z AUTO 29009KT 10SM CLR 31/08 A3004 RMK AO2 SLP081
T03110083 TSNO





000
SAUS45 KABQ 310054
MTRCQC
METAR KCQC 310053Z AUTO 14008KT 10SM SCT090 24/07 A3021 RMK AO2
SLP132 T02440072





000
SAUS45 KABQ 310054
MTRTCS
METAR KTCS 310053Z AUTO 29009KT 10SM CLR 31/08 A3004 RMK AO2 SLP081
T03110083 TSNO





000
SAUS45 KABQ 310053
MTRABQ
METAR KABQ 310052Z 22006KT 10SM FEW080 FEW160 SCT220 32/05 A3006 RMK
AO2 SLP090 T03170050





000
SAUS45 KABQ 310053
MTRABQ
METAR KABQ 310052Z 22006KT 10SM FEW080 FEW160 SCT220 32/05 A3006 RMK
AO2 SLP090 T03170050





000
SAUS45 KABQ 302354
MTRCQC
METAR KCQC 302353Z AUTO 12011KT 10SM BKN095 23/07 A3023 RMK AO2 PK
WND 10033/2337 SLP144 T02280072 10294 20228 55007





000
SAUS45 KABQ 302354
MTRTCS
METAR KTCS 302353Z AUTO 30012G19KT 10SM CLR 32/08 A3005 RMK AO2
SLP087 T03170083 10333 20283 56016 TSNO





000
SAUS45 KABQ 302352
MTRABQ
METAR KABQ 302352Z 33005KT 10SM FEW080 FEW160 SCT220 33/06 A3007 RMK
AO2 SLP090 CB DSNT E T03280061 10333 20272 56022





000
SAUS45 KABQ 302254
MTRTCS
METAR KTCS 302253Z AUTO VRB06KT 10SM FEW100 33/06 A3006 RMK AO2
SLP087 T03280061 TSNO





000
SAUS45 KABQ 302254
MTRCQC
METAR KCQC 302253Z AUTO 29011G21KT 10SM CLR 28/07 A3021 RMK AO2
SLP124 T02830072





000
SAUS45 KABQ 302252
MTRABQ
METAR KABQ 302252Z 35004KT 10SM FEW090 FEW160 33/04 A3009 RMK AO2
SLP095 T03330044





000
SAUS45 KABQ 302154
MTRCQC
METAR KCQC 302153Z AUTO 29011G19KT 10SM FEW100 FEW120 28/08 A3023
RMK AO2 SLP132 T02830078





000
SAUS45 KABQ 302154
MTRTCS
METAR KTCS 302153Z AUTO VRB04KT 10SM CLR 33/08 A3008 RMK AO2 SLP091
T03280083 TSNO





000
SAUS45 KABQ 302152
MTRABQ
METAR KABQ 302152Z 00000KT 10SM SCT090 SCT180 32/05 A3012 RMK AO2
SLP105 T03220050





000
SAUS45 KABQ 302152
MTRABQ
METAR KABQ 302152Z 00000KT 10SM SCT090 SCT180 32/05 A3012 RMK AO2
SLP105 T03220050





000
SAUS45 KABQ 302054
MTRCQC
METAR KCQC 302053Z AUTO VRB06KT 10SM FEW120 29/07 A3026 RMK AO2
SLP139 T02890067 58021





000
SAUS45 KABQ 302054
MTRCQC
METAR KCQC 302053Z AUTO VRB06KT 10SM FEW120 29/07 A3026 RMK AO2
SLP139 T02890067 58021





000
SAUS45 KABQ 302054
MTRTCS
METAR KTCS 302053Z AUTO VRB05KT 10SM CLR 32/09 A3011 RMK AO2 SLP102
T03220089 58026 TSNO





000
SAUS45 KABQ 302054
MTRTCS
METAR KTCS 302053Z AUTO VRB05KT 10SM CLR 32/09 A3011 RMK AO2 SLP102
T03220089 58026 TSNO





000
SAUS45 KABQ 302052
MTRABQ
METAR KABQ 302052Z 22005KT 10SM SCT090 SCT180 31/06 A3015 RMK AO2
LTG DSNT E SLP114 CB DSNT N NE AND SE T03110061 58026





000
SAUS45 KABQ 301955
MTRTCS
METAR KTCS 301953Z AUTO 20007G15KT 10SM CLR 31/09 A3014 RMK AO2
SLP112 T03110094 TSNO





000
SAUS45 KABQ 301954
MTRCQC
METAR KCQC 301953Z AUTO 30006KT 10SM FEW075 27/08 A3029 RMK AO2
SLP155 T02670078





000
SAUS45 KABQ 301954
MTRCQC
METAR KCQC 301953Z AUTO 30006KT 10SM FEW075 27/08 A3029 RMK AO2
SLP155 T02670078





000
SAUS45 KABQ 301953
MTRABQ
METAR KABQ 301952Z 28005KT 10SM FEW070 FEW120 30/08 A3018 RMK AO2
LTG DSNT E SLP125 CB DSNT E TCU DSNT ALQDS T03000078





000
SAUS45 KABQ 301953
MTRABQ
METAR KABQ 301952Z 28005KT 10SM FEW070 FEW120 30/08 A3018 RMK AO2
LTG DSNT E SLP125 CB DSNT E TCU DSNT ALQDS T03000078





000
SAUS45 KABQ 301855
MTRTCS
METAR KTCS 301853Z AUTO 20007KT 10SM CLR 30/11 A3017 RMK AO2 SLP122
T03000106 TSNO





000
SAUS45 KABQ 301855
MTRTCS
METAR KTCS 301853Z AUTO 20007KT 10SM CLR 30/11 A3017 RMK AO2 SLP122
T03000106 TSNO





000
SAUS45 KABQ 301854
MTRCQC
METAR KCQC 301853Z AUTO 32008G16KT 10SM CLR 26/09 A3031 RMK AO2
SLP163 T02610089





000
SAUS45 KABQ 301852
MTRABQ
METAR KABQ 301852Z 25007KT 10SM FEW070 FEW100 29/09 A3021 RMK AO2
SLP140 TCU DSNT ALQDS T02890089





000
SAUS45 KABQ 301754
MTRCQC
METAR KCQC 301753Z AUTO 34007KT 130V080 10SM CLR 24/10 A3033 RMK AO2
SLP174 T02440100 10244 20122 58000





000
SAUS45 KABQ 301754
MTRCQC
METAR KCQC 301753Z AUTO 34007KT 130V080 10SM CLR 24/10 A3033 RMK AO2
SLP174 T02440100 10244 20122 58000





000
SAUS45 KABQ 301754
MTRTCS
METAR KTCS 301753Z AUTO VRB06KT 10SM CLR 28/11 A3020 RMK AO2 SLP132
T02830111 10289 20183 58003 TSNO





000
SAUS45 KABQ 301754
MTRTCS
METAR KTCS 301753Z AUTO VRB06KT 10SM CLR 28/11 A3020 RMK AO2 SLP132
T02830111 10289 20183 58003 TSNO





000
SAUS45 KABQ 301752
MTRABQ
METAR KABQ 301752Z VRB03KT 10SM FEW075 27/10 A3024 RMK AO2 SLP151
TCU DSNT N AND NW T02720100 10272 20178 58006





000
SAUS45 KABQ 301752
MTRABQ
METAR KABQ 301752Z VRB03KT 10SM FEW075 27/10 A3024 RMK AO2 SLP151
TCU DSNT N AND NW T02720100 10272 20178 58006





000
SAUS45 KABQ 301654
MTRTCS
METAR KTCS 301653Z AUTO VRB05KT 10SM CLR 28/11 A3021 RMK AO2 SLP136
T02780111 TSNO





000
SAUS45 KABQ 301654
MTRCQC
METAR KCQC 301653Z AUTO 28014KT 10SM CLR 23/11 A3035 RMK AO2 SLP180
T02330106





000
SAUS45 KABQ 301652
MTRABQ
METAR KABQ 301652Z 28004KT 10SM FEW070 FEW120 26/10 A3026 RMK AO2
SLP158 T02560100





000
SAUS45 KABQ 301554
MTRTCS
METAR KTCS 301553Z AUTO VRB04KT 10SM CLR 27/11 A3021 RMK AO2 SLP140
T02670111 TSNO





000
SAUS45 KABQ 301554
MTRCQC
METAR KCQC 301553Z AUTO 25011KT 10SM CLR 22/11 A3034 RMK AO2 SLP176
T02220106





000
SAUS45 KABQ 301553
MTRABQ
METAR KABQ 301552Z 20003KT 10SM FEW090 FEW150 24/10 A3026 RMK AO2
SLP161 T02390100





000
SAUS45 KABQ 301454
MTRCQC
METAR KCQC 301453Z AUTO 25009KT 10SM CLR 21/11 A3033 RMK AO2 SLP175
T02110106 51003





000
SAUS45 KABQ 301454
MTRCQC
METAR KCQC 301453Z AUTO 25009KT 10SM CLR 21/11 A3033 RMK AO2 SLP175
T02110106 51003





000
SAUS45 KABQ 301454
MTRTCS
METAR KTCS 301453Z AUTO VRB04KT 10SM CLR 23/12 A3020 RMK AO2 SLP141
T02330117 51010 TSNO





000
SAUS45 KABQ 301454
MTRTCS
METAR KTCS 301453Z AUTO VRB04KT 10SM CLR 23/12 A3020 RMK AO2 SLP141
T02330117 51010 TSNO





000
SAUS45 KABQ 301453
MTRABQ
METAR KABQ 301452Z 03004KT 10SM FEW150 22/11 A3026 RMK AO2 SLP165
T02170106 51011





000
SAUS45 KABQ 301453
MTRABQ
METAR KABQ 301452Z 03004KT 10SM FEW150 22/11 A3026 RMK AO2 SLP165
T02170106 51011





000
SAUS45 KABQ 301354
MTRTCS
METAR KTCS 301353Z AUTO 30007KT 10SM CLR 21/11 A3020 RMK AO2 SLP143
T02110111 TSNO





000
SAUS45 KABQ 301354
MTRCQC
METAR KCQC 301353Z AUTO 29005KT 10SM CLR 17/12 A3033 RMK AO2 SLP180
T01670117





000
SAUS45 KABQ 301354
MTRCQC
METAR KCQC 301353Z AUTO 29005KT 10SM CLR 17/12 A3033 RMK AO2 SLP180
T01670117





000
SAUS45 KABQ 301354
MTRTCS
METAR KTCS 301353Z AUTO 30007KT 10SM CLR 21/11 A3020 RMK AO2 SLP143
T02110111 TSNO





000
SAUS45 KABQ 301352
MTRABQ
METAR KABQ 301352Z 34006KT 10SM FEW250 19/11 A3025 RMK AO2 SLP168
T01940106





000
SAUS45 KABQ 301254
MTRTCS
METAR KTCS 301253Z AUTO 33005KT 10SM CLR 19/11 A3018 RMK AO2 SLP136
T01940106 TSNO





000
SAUS45 KABQ 301254
MTRCQC
METAR KCQC 301253Z AUTO 28004KT 10SM CLR 13/09 A3033 RMK AO2 SLP184
T01280094





000
SAUS45 KABQ 301254
MTRCQC
METAR KCQC 301253Z AUTO 28004KT 10SM CLR 13/09 A3033 RMK AO2 SLP184
T01280094





000
SAUS45 KABQ 301254
MTRTCS
METAR KTCS 301253Z AUTO 33005KT 10SM CLR 19/11 A3018 RMK AO2 SLP136
T01940106 TSNO





000
SAUS45 KABQ 301253
MTRABQ
METAR KABQ 301252Z 36006KT 10SM FEW200 18/10 A3024 RMK AO2 SLP158
T01780100





000
SAUS45 KABQ 301253
MTRABQ
METAR KABQ 301252Z 36006KT 10SM FEW200 18/10 A3024 RMK AO2 SLP158
T01780100





000
SAUS45 KABQ 301154
MTRTCS
METAR KTCS 301153Z AUTO 36003KT 10SM CLR 19/11 A3017 RMK AO2 SLP125
T01940111 10250 20194 58001 TSNO





000
SAUS45 KABQ 301154
MTRCQC
METAR KCQC 301153Z AUTO 30005KT 10SM CLR 13/10 A3032 RMK AO2 SLP177
T01330100 10150 20122 57003





000
SAUS45 KABQ 301154
MTRTCS
METAR KTCS 301153Z AUTO 36003KT 10SM CLR 19/11 A3017 RMK AO2 SLP125
T01940111 10250 20194 58001 TSNO





000
SAUS45 KABQ 301154
MTRCQC
METAR KCQC 301153Z AUTO 30005KT 10SM CLR 13/10 A3032 RMK AO2 SLP177
T01330100 10150 20122 57003





000
SAUS45 KABQ 301152
MTRABQ
METAR KABQ 301152Z 30005KT 10SM CLR 19/09 A3022 RMK AO2 SLP150
T01890094 10239 20189 58002





000
SAUS45 KABQ 301152
MTRABQ
METAR KABQ 301152Z 30005KT 10SM CLR 19/09 A3022 RMK AO2 SLP150
T01890094 10239 20189 58002





000
SAUS45 KABQ 301055
MTRTCS
METAR KTCS 301053Z AUTO 31006KT 10SM CLR 19/12 A3017 RMK AO2 SLP122
T01940117 TSNO





000
SAUS45 KABQ 301054
MTRCQC
METAR KCQC 301053Z AUTO 29006KT 10SM CLR 13/10 A3033 RMK AO2 SLP173
T01330100





000
SAUS45 KABQ 301052
MTRABQ
METAR KABQ 301052Z 03006KT 10SM CLR 19/09 A3023 RMK AO2 SLP150
T01940089





000
SAUS45 KABQ 300955
MTRTCS
METAR KTCS 300953Z AUTO 31007KT 10SM CLR 21/11 A3018 RMK AO2 SLP124
T02110111 TSNO





000
SAUS45 KABQ 300955
MTRTCS
METAR KTCS 300953Z AUTO 31007KT 10SM CLR 21/11 A3018 RMK AO2 SLP124
T02110111 TSNO





000
SAUS45 KABQ 300954
MTRCQC
METAR KCQC 300953Z AUTO 27006KT 10SM CLR 13/11 A3033 RMK AO2 SLP175
T01330106





000
SAUS45 KABQ 300954
MTRCQC
METAR KCQC 300953Z AUTO 27006KT 10SM CLR 13/11 A3033 RMK AO2 SLP175
T01330106





000
SAUS45 KABQ 300952
MTRABQ
METAR KABQ 300952Z 34005KT 10SM CLR 20/09 A3023 RMK AO2 SLP152
T02000094





000
SAUS45 KABQ 300854
MTRCQC
METAR KCQC 300853Z AUTO 23005KT 10SM CLR 13/11 A3033 RMK AO2 SLP177
T01330111 58007





000
SAUS45 KABQ 300854
MTRCQC
METAR KCQC 300853Z AUTO 23005KT 10SM CLR 13/11 A3033 RMK AO2 SLP177
T01330111 58007





000
SAUS45 KABQ 300854
MTRTCS
METAR KTCS 300853Z AUTO 34004KT 10SM CLR 21/12 A3017 RMK AO2 SLP124
T02060117 57005 TSNO





000
SAUS45 KABQ 300854
MTRTCS
METAR KTCS 300853Z AUTO 34004KT 10SM CLR 21/12 A3017 RMK AO2 SLP124
T02060117 57005 TSNO





000
SAUS45 KABQ 300853
MTRABQ
METAR KABQ 300852Z 00000KT 10SM CLR 22/10 A3023 RMK AO2 SLP142
T02170100 58003





000
SAUS45 KABQ 300754
MTRCQC
METAR KCQC 300753Z AUTO 20007KT 10SM CLR 13/11 A3035 RMK AO2 SLP180
T01330106





000
SAUS45 KABQ 300754
MTRTCS
METAR KTCS 300753Z AUTO 00000KT 10SM CLR 22/12 A3018 RMK AO2 SLP125
T02220122 TSNO





000
SAUS45 KABQ 300754
MTRCQC
METAR KCQC 300753Z AUTO 20007KT 10SM CLR 13/11 A3035 RMK AO2 SLP180
T01330106





000
SAUS45 KABQ 300754
MTRTCS
METAR KTCS 300753Z AUTO 00000KT 10SM CLR 22/12 A3018 RMK AO2 SLP125
T02220122 TSNO





000
SAUS45 KABQ 300752
MTRABQ
METAR KABQ 300752Z 00000KT 10SM CLR 23/10 A3024 RMK AO2 SLP146
T02280100





000
SAUS45 KABQ 300654
MTRCQC
METAR KCQC 300653Z AUTO 20007KT 10SM CLR 14/11 A3036 RMK AO2 SLP183
T01390111 402560100





000
SAUS45 KABQ 300654
MTRTCS
METAR KTCS 300653Z AUTO 21004KT 10SM CLR 24/11 A3019 RMK AO2 SLP127
T02440111 403390194 TSNO





000
SAUS45 KABQ 300654
MTRTCS
METAR KTCS 300653Z AUTO 21004KT 10SM CLR 24/11 A3019 RMK AO2 SLP127
T02440111 403390194 TSNO





000
SAUS45 KABQ 300653
MTRABQ
METAR KABQ 300652Z 28004KT 10SM FEW120 22/09 A3025 RMK AO2 SLP150
T02220094 403170189





000
SAUS45 KABQ 300554
MTRCQC
METAR KCQC 300553Z AUTO 19008KT 10SM CLR 14/11 A3036 RMK AO2 SLP184
T01440111 10233 20144 51002





000
SAUS45 KABQ 300554
MTRTCS
METAR KTCS 300553Z AUTO 22004KT 10SM BKN100 25/11 A3019 RMK AO2
SLP130 T02500111 10333 20250 50016 TSNO





000
SAUS45 KABQ 300554
MTRCQC
METAR KCQC 300553Z AUTO 19008KT 10SM CLR 14/11 A3036 RMK AO2 SLP184
T01440111 10233 20144 51002





000
SAUS45 KABQ 300554
MTRTCS
METAR KTCS 300553Z AUTO 22004KT 10SM BKN100 25/11 A3019 RMK AO2
SLP130 T02500111 10333 20250 50016 TSNO





000
SAUS45 KABQ 300553
MTRABQ
METAR KABQ 300552Z 11005KT 10SM SCT110 23/09 A3024 RMK AO2 SLP150
T02280089 10289 20222 53009





000
SAUS45 KABQ 300553
MTRABQ
METAR KABQ 300552Z 11005KT 10SM SCT110 23/09 A3024 RMK AO2 SLP150
T02280089 10289 20222 53009





000
SAUS45 KABQ 300454
MTRTCS
METAR KTCS 300453Z AUTO 27004KT 10SM SCT100 26/10 A3020 RMK AO2
SLP134 T02560100 TSNO





000
SAUS45 KABQ 300454
MTRCQC
METAR KCQC 300453Z AUTO 17007KT 10SM CLR 16/11 A3036 RMK AO2 SLP183
T01560111





000
SAUS45 KABQ 300454
MTRTCS
METAR KTCS 300453Z AUTO 27004KT 10SM SCT100 26/10 A3020 RMK AO2
SLP134 T02560100 TSNO





000
SAUS45 KABQ 300452
MTRABQ
METAR KABQ 300452Z 09009KT 10SM FEW150 24/08 A3023 RMK AO2 SLP147
T02390083





000
SAUS45 KABQ 300452
MTRABQ
METAR KABQ 300452Z 09009KT 10SM FEW150 24/08 A3023 RMK AO2 SLP147
T02390083





000
SAUS45 KABQ 300354
MTRTCS
METAR KTCS 300353Z AUTO 23007KT 10SM CLR 26/11 A3017 RMK AO2 SLP129
T02560106 TSNO





000
SAUS45 KABQ 300354
MTRCQC
METAR KCQC 300353Z AUTO 13006KT 10SM CLR 16/12 A3037 RMK AO2 SLP190
T01610117





000
SAUS45 KABQ 300353
MTRABQ
METAR KABQ 300352Z 11011KT 10SM FEW150 25/08 A3022 RMK AO2 SLP147
T02500078





000
SAUS45 KABQ 300254
MTRTCS
METAR KTCS 300253Z AUTO 17004KT 10SM BKN100 26/11 A3014 RMK AO2
SLP120 T02610111 51016 TSNO





000
SAUS45 KABQ 300254
MTRTCS
METAR KTCS 300253Z AUTO 17004KT 10SM BKN100 26/11 A3014 RMK AO2
SLP120 T02610111 51016 TSNO





000
SAUS45 KABQ 300254
MTRCQC
METAR KCQC 300253Z AUTO 13007KT 10SM CLR 17/11 A3035 RMK AO2 SLP184
T01720111 53007





000
SAUS45 KABQ 300252
MTRABQ
METAR KABQ 300252Z 11010KT 10SM FEW150 25/08 A3021 RMK AO2 SLP147
T02500078 53007





000
SAUS45 KABQ 300252
MTRABQ
METAR KABQ 300252Z 11010KT 10SM FEW150 25/08 A3021 RMK AO2 SLP147
T02500078 53007





000
SAUS45 KABQ 300154
MTRTCS
METAR KTCS 300153Z AUTO 10004KT 10SM BKN100 26/11 A3011 RMK AO2
SLP114 T02610111 TSNO





000
SAUS45 KABQ 300154
MTRCQC
METAR KCQC 300153Z AUTO 07006KT 10SM CLR 19/08 A3033 RMK AO2 SLP181
T01940078





000
SAUS45 KABQ 300153
MTRABQ
METAR KABQ 300152Z 11011KT 10SM FEW085 FEW150 SCT250 25/07 A3018 RMK
AO2 SLP141 T02500067





000
SAUS45 KABQ 300153
MTRABQ
METAR KABQ 300152Z 11011KT 10SM FEW085 FEW150 SCT250 25/07 A3018 RMK
AO2 SLP141 T02500067





000
SAUS45 KABQ 300054
MTRTCS
METAR KTCS 300053Z AUTO 12015G27KT 10SM OVC100 28/11 A3011 RMK AO2
PK WND 12027/0048 WSHFT 0021 SLP112 T02830106 TSNO





000
SAUS45 KABQ 300054
MTRCQC
METAR KCQC 300053Z AUTO 07006KT 10SM CLR 22/08 A3033 RMK AO2 SLP183
T02170078





000
SAUS45 KABQ 300053
MTRABQ
METAR KABQ 300052Z 11014KT 10SM FEW085 FEW150 SCT250 28/06 A3018 RMK
AO2 SLP135 CB DSNT SE T02830056





000
SAUS45 KABQ 300043
MTRTCS
SPECI KTCS 300041Z AUTO 12014G26KT 10SM OVC100 29/09 A3011 RMK AO2
PK WND 11026/0034 WSHFT 0021 T02940094 TSNO





000
SAUS45 KABQ 292354
MTRTCS
METAR KTCS 292353Z AUTO 07007KT 10SM CLR 33/07 A3008 RMK AO2 SLP093
T03280072 10339 20278 56021 TSNO





000
SAUS45 KABQ 292354
MTRTCS
METAR KTCS 292353Z AUTO 07007KT 10SM CLR 33/07 A3008 RMK AO2 SLP093
T03280072 10339 20278 56021 TSNO





000
SAUS45 KABQ 292354
MTRCQC
METAR KCQC 292353Z AUTO 07007KT 10SM SCT120 23/07 A3033 RMK AO2
SLP181 T02330072 10256 20233 56008





000
SAUS45 KABQ 292354
MTRCQC
METAR KCQC 292353Z AUTO 07007KT 10SM SCT120 23/07 A3033 RMK AO2
SLP181 T02330072 10256 20233 56008





000
SAUS45 KABQ 292353
MTRABQ
METAR KABQ 292352Z 11015KT 10SM FEW085 SCT150 SCT250 29/07 A3018 RMK
AO2 SLP132 SHRA DSNT NW T02890072 10317 20256 58007





000
SAUS45 KABQ 292353
MTRABQ
METAR KABQ 292352Z 11015KT 10SM FEW085 SCT150 SCT250 29/07 A3018 RMK
AO2 SLP132 SHRA DSNT NW T02890072 10317 20256 58007





000
SAUS45 KABQ 292254
MTRCQC
METAR KCQC 292253Z AUTO 02009KT 10SM SCT100 25/08 A3033 RMK AO2
SLP181 T02500078





000
SAUS45 KABQ 292254
MTRTCS
METAR KTCS 292253Z AUTO VRB05KT 10SM FEW100 33/06 A3010 RMK AO2
SLP098 T03330061 TSNO





000
SAUS45 KABQ 292252
MTRABQ
METAR KABQ 292252Z 12015KT 10SM FEW095 SCT150 BKN250 29/06 A3019 RMK
AO2 PK WND 13030/2233 LTG DSNT NW SLP134 CB DSNT S SHRA DSNT S
T02890056





000
SAUS45 KABQ 292252
MTRABQ
METAR KABQ 292252Z 12015KT 10SM FEW095 SCT150 BKN250 29/06 A3019 RMK
AO2 PK WND 13030/2233 LTG DSNT NW SLP134 CB DSNT S SHRA DSNT S
T02890056





000
SAUS45 KABQ 292226
MTRABQ
SPECI KABQ 292226Z 12020KT 10SM SCT095 BKN150 BKN250 27/09 A3021 RMK
AO2 PK WND 09026/2205 LTG DSNT SE AND S CB DSNT N SHRA DSNT E AND SE
T02670094





000
SAUS45 KABQ 292154
MTRTCS
METAR KTCS 292153Z AUTO 10SM CLR 33/07 A3012 RMK AO2 SLP106
T03280067 TSNO





000
SAUS45 KABQ 292154
MTRCQC
METAR KCQC 292153Z AUTO 05005KT 10SM CLR 24/06 A3033 RMK AO2 SLP185
T02390061





000
SAUS45 KABQ 292152
MTRABQ
METAR KABQ 292152Z 09017KT 10SM VCTS SCT095CB BKN150 BKN250 28/08
A3021 RMK AO2 PK WND 11029/2136 WSHFT 2123 LTG DSNT E AND S TSB32E47
SLP143 TS E MOV S CB DSNT NE-SE SHRA DSNT E AND SE MTNS OBSC SE
T02780083





000
SAUS45 KABQ 292138
MTRABQ
SPECI KABQ 292137Z 11026G29KT 10SM TS SCT095CB BKN150 BKN250 30/08
A3020 RMK AO2 PK WND 11029/2136 WSHFT 2123 LTG DSNT NE AND E TSB32
TS E MOV S CB DSNT NE-SE SHRA DSNT E-SE T03000078





000
SAUS45 KABQ 292129
MTRABQ
SPECI KABQ 292128Z 07015KT 10SM VCTS SCT095CB BKN150 31/07 A3020 RMK
AO2 LTG DSNT NE AND E TS E MOV S CB DSNT NE SHRA DSNT E AND SE
T03060072





000
SAUS45 KABQ 292054
MTRCQC
METAR KCQC 292053Z AUTO 09007KT 10SM SCT090 24/06 A3036 RMK AO2
SLP185 T02440056 56014





000
SAUS45 KABQ 292054
MTRTCS
METAR KTCS 292053Z AUTO 07007KT 10SM CLR 32/09 A3016 RMK AO2 SLP119
T03220089 58025 TSNO





000
SAUS45 KABQ 292054
MTRTCS
METAR KTCS 292053Z AUTO 07007KT 10SM CLR 32/09 A3016 RMK AO2 SLP119
T03220089 58025 TSNO





000
SAUS45 KABQ 292054
MTRCQC
METAR KCQC 292053Z AUTO 09007KT 10SM SCT090 24/06 A3036 RMK AO2
SLP185 T02440056 56014





000
SAUS45 KABQ 292052
MTRABQ
METAR KABQ 292052Z VRB05KT 10SM SCT090CB SCT160 31/08 A3021 RMK AO2
LTG DSNT NE SLP134 CB NE MOV S CB DSNT NE AND NW SHRA DSNT NE
T03110078 56026





000
SAUS45 KABQ 291954
MTRCQC
METAR KCQC 291953Z AUTO 15004KT 10SM SCT080 SCT090 25/07 A3037 RMK
AO2 SLP186 T02500067





000
SAUS45 KABQ 291954
MTRTCS
METAR KTCS 291953Z AUTO 05009KT 10SM CLR 32/10 A3019 RMK AO2 SLP129
T03170100 TSNO





000
SAUS45 KABQ 291953
MTRABQ
METAR KABQ 291952Z 32008KT 10SM SCT090 SCT150 30/08 A3024 RMK AO2
SLP147 CB DSNT N NE AND NW T03000083





000
SAUS45 KABQ 291953
MTRABQ
METAR KABQ 291952Z 32008KT 10SM SCT090 SCT150 30/08 A3024 RMK AO2
SLP147 CB DSNT N NE AND NW T03000083





000
SAUS45 KABQ 291854
MTRTCS
METAR KTCS 291853Z AUTO VRB04KT 10SM CLR 30/12 A3022 RMK AO2 SLP143
T03000122 TSNO





000
SAUS45 KABQ 291854
MTRCQC
METAR KCQC 291853Z AUTO 09010KT 10SM CLR 24/07 A3039 RMK AO2 SLP194
T02440067





000
SAUS45 KABQ 291853
MTRABQ
METAR KABQ 291852Z VRB06KT 10SM FEW080 SCT150 30/09 A3027 RMK AO2
SLP158 CB DSNT N NE AND NW T03000089





000
SAUS45 KABQ 291853
MTRABQ
METAR KABQ 291852Z VRB06KT 10SM FEW080 SCT150 30/09 A3027 RMK AO2
SLP158 CB DSNT N NE AND NW T03000089





    US Dept of Commerce
    National Oceanic and Atmospheric Administration
    National Weather Service
    1325 East West Highway
    Silver Spring, MD 20910
    Page Author: NWS Internet Services Team
Disclaimer
Information Quality
Credits
Glossary
Privacy Policy
Freedom of Information Act (FOIA)
About Us
Career Opportunities